Terminal Aerodrome Forecast
Issued by NWS

Home | Current Version | Previous Version | Text Only | Print | Product List | Glossary On
Versions: 1 2 3 4 5 6 7 8 9 10 11 12 13 14 15 16 17
000
FTUS45 KRIW 281321 AAA
TAFLND
TAF AMD
KLND 281321Z 2813/2912 31006KT 2SM -SN OVC014
      TEMPO 2813/2817 1SM -SN OVC006
     FM290600 VRB05KT 5SM -SN OVC020=

USA.gov is the U.S. government's official web portal to all federal, state and local government web resources and services.